Time;durP1;ratioP1;P1;durP2;ratioP2;P2;SDS_P1;SDS_P2;PMS_P1;PMS_P2;Temp;Humidity;BMP_temperature;BMP_pressure;BME280_temperature;BME280_humidity;BME280_pressure;Samples;Min_cycle;Max_cycle;Signal;HPM_P1;HPM_P2
2024/01/17 00:02:08;;;;;;;6.00;2.30;;;-0.10;99.90;;;;;;6308815;22;20015;-37
2024/01/17 00:04:33;;;;;;;4.10;2.00;;;-0.20;99.90;;;;;;6309855;22;20019;-36
2024/01/17 00:06:59;;;;;;;10.65;2.55;;;-0.30;99.90;;;;;;6310489;22;20437;-35
2024/01/17 00:09:25;;;;;;;6.35;2.72;;;-0.30;99.90;;;;;;6282445;22;20445;-37
2024/01/17 00:11:51;;;;;;;5.90;1.98;;;-0.40;99.90;;;;;;6282517;22;20318;-38
2024/01/17 00:14:16;;;;;;;13.32;3.22;;;-0.40;99.90;;;;;;6309536;22;20007;-36
2024/01/17 00:16:42;;;;;;;4.88;2.20;;;-0.40;99.90;;;;;;6309592;22;20015;-36
2024/01/17 00:19:08;;;;;;;5.05;1.98;;;-0.40;99.90;;;;;;6282718;22;20353;-40
2024/01/17 00:21:34;;;;;;;5.55;2.30;;;-0.10;99.90;;;;;;6256448;22;20046;-38
2024/01/17 00:23:59;;;;;;;8.10;3.95;;;-0.30;99.90;;;;;;6309949;22;20011;-34
2024/01/17 00:26:25;;;;;;;3.83;2.60;;;-0.30;99.90;;;;;;6282421;22;20015;-35
2024/01/17 00:28:51;;;;;;;5.05;2.45;;;-0.20;99.90;;;;;;6282294;22;20090;-35
2024/01/17 00:31:16;;;;;;;6.43;2.55;;;-0.10;99.90;;;;;;6282261;22;20019;-34
2024/01/17 00:33:42;;;;;;;4.97;2.40;;;-0.30;99.90;;;;;;6283112;22;20022;-36
2024/01/17 00:36:08;;;;;;;6.13;2.45;;;0.00;99.90;;;;;;6309782;22;20015;-35
2024/01/17 00:38:34;;;;;;;5.75;2.42;;;-0.30;99.90;;;;;;6282151;22;20049;-35
2024/01/17 00:41:00;;;;;;;4.23;2.43;;;-0.20;99.90;;;;;;6309383;22;20007;-35
2024/01/17 00:43:26;;;;;;;5.55;2.28;;;-0.30;99.90;;;;;;6282894;22;20071;-34
2024/01/17 00:45:51;;;;;;;9.10;2.80;;;-0.30;99.90;;;;;;6256818;22;20065;-34
2024/01/17 00:48:18;;;;;;;7.22;2.45;;;0.20;99.90;;;;;;6309668;22;20011;-34
2024/01/17 00:50:44;;;;;;;8.70;3.22;;;-0.30;99.90;;;;;;6310086;22;20050;-34
2024/01/17 00:53:10;;;;;;;5.50;2.80;;;-0.30;99.90;;;;;;6309355;22;20015;-34
2024/01/17 00:55:44;;;;;;;7.70;2.35;;;0.00;99.90;;;;;;6309573;22;20421;-35
2024/01/17 00:58:10;;;;;;;8.33;3.43;;;-0.40;99.90;;;;;;6310302;22;20080;-33
2024/01/17 01:00:39;;;;;;;8.27;3.03;;;-0.40;99.90;;;;;;6256404;22;20434;-33
2024/01/17 01:03:05;;;;;;;9.13;3.13;;;-0.40;99.90;;;;;;6256371;22;20011;-34
2024/01/17 01:05:33;;;;;;;9.07;3.78;;;-0.40;99.90;;;;;;6282126;22;20019;-35
2024/01/17 01:08:02;;;;;;;4.67;2.23;;;-0.30;99.90;;;;;;6309144;22;20015;-37
2024/01/17 01:10:27;;;;;;;7.43;3.60;;;-0.40;99.90;;;;;;6309138;22;20011;-34
2024/01/17 01:12:53;;;;;;;9.10;4.57;;;-0.30;99.90;;;;;;6308745;22;20026;-34
2024/01/17 01:15:19;;;;;;;8.98;3.25;;;-0.30;99.90;;;;;;6256164;22;20007;-34
2024/01/17 01:17:45;;;;;;;10.57;4.40;;;-0.30;99.90;;;;;;6309035;22;20054;-36
2024/01/17 01:20:14;;;;;;;5.73;3.53;;;-0.30;99.90;;;;;;6281721;22;20008;-33
2024/01/17 01:22:40;;;;;;;5.43;3.00;;;-0.30;99.90;;;;;;6282707;22;20027;-34
2024/01/17 01:25:08;;;;;;;11.98;4.82;;;-0.40;99.90;;;;;;6281786;22;20315;-35
2024/01/17 01:27:34;;;;;;;9.45;3.78;;;-0.40;99.90;;;;;;6309044;22;20295;-33
2024/01/17 01:30:00;;;;;;;8.48;3.42;;;-0.40;99.90;;;;;;6308859;22;20015;-32
2024/01/17 01:32:26;;;;;;;10.33;4.37;;;-0.50;99.90;;;;;;6281199;22;20013;-33
2024/01/17 01:34:54;;;;;;;11.07;5.97;;;-0.30;99.90;;;;;;6308784;22;20051;-33
2024/01/17 01:37:19;;;;;;;15.68;4.45;;;-0.40;99.90;;;;;;6281499;22;20022;-35
2024/01/17 01:39:45;;;;;;;6.07;3.47;;;-0.30;99.90;;;;;;6309148;22;20426;-33
2024/01/17 01:42:11;;;;;;;10.40;3.70;;;-0.30;99.90;;;;;;6282357;22;20399;-34
2024/01/17 01:44:43;;;;;;;8.07;4.45;;;-0.30;99.90;;;;;;6256162;22;20007;-33
2024/01/17 01:47:08;;;;;;;7.97;4.20;;;-0.30;99.90;;;;;;6281843;22;20011;-34
2024/01/17 01:49:39;;;;;;;6.38;3.88;;;-0.30;99.90;;;;;;6255029;22;20458;-33
2024/01/17 01:52:08;;;;;;;8.10;4.07;;;-0.30;99.90;;;;;;6245724;23;20020;-34
2024/01/17 01:54:36;;;;;;;11.50;4.53;;;-0.30;99.90;;;;;;6247037;23;20374;-34
2024/01/17 01:57:06;;;;;;;9.25;4.50;;;-0.30;99.90;;;;;;6221063;23;20039;-33
2024/01/17 01:59:32;;;;;;;8.97;5.00;;;-0.40;99.90;;;;;;6247003;23;20020;-33
2024/01/17 02:01:58;;;;;;;9.27;3.90;;;-0.30;99.90;;;;;;6247701;23;20015;-33
2024/01/17 02:04:36;;;;;;;7.40;3.80;;;-0.40;99.90;;;;;;6220130;23;20074;-33
2024/01/17 02:07:03;;;;;;;12.20;5.30;;;-0.40;99.90;;;;;;6247373;23;20023;-34
2024/01/17 02:09:32;;;;;;;13.50;4.30;;;-0.40;99.90;;;;;;6220040;23;20012;-32
2024/01/17 02:12:02;;;;;;;10.37;4.87;;;-0.40;99.90;;;;;;6246953;23;20012;-33
2024/01/17 02:14:28;;;;;;;12.38;5.53;;;-0.40;99.90;;;;;;6245279;23;20034;-34
2024/01/17 02:16:54;;;;;;;11.70;5.03;;;-0.40;99.90;;;;;;6244940;23;20016;-34
2024/01/17 02:19:21;;;;;;;12.47;5.13;;;-0.50;99.90;;;;;;6247904;23;20012;-33
2024/01/17 02:21:50;;;;;;;9.73;5.07;;;-0.50;99.90;;;;;;6247866;23;20335;-33
2024/01/17 02:24:28;;;;;;;8.73;4.63;;;-0.50;99.90;;;;;;6245125;23;20016;-34
2024/01/17 02:26:59;;;;;;;9.53;4.70;;;-0.50;99.90;;;;;;6247639;22;20044;-34
2024/01/17 02:29:34;;;;;;;7.17;4.83;;;-0.60;99.90;;;;;;6246329;23;20297;-32
2024/01/17 02:32:06;;;;;;;11.27;4.40;;;-0.60;99.90;;;;;;6247065;23;20362;-33
2024/01/17 02:34:33;;;;;;;11.30;5.23;;;-0.60;99.90;;;;;;6245951;23;20008;-32
2024/01/17 02:37:07;;;;;;;10.33;5.33;;;-0.70;99.90;;;;;;6246073;23;20016;-32
2024/01/17 02:39:33;;;;;;;12.23;5.40;;;-0.70;99.90;;;;;;6246289;23;20012;-32
2024/01/17 02:42:01;;;;;;;11.77;5.87;;;-0.70;99.90;;;;;;6246697;23;20023;-33
2024/01/17 02:44:26;;;;;;;12.70;5.20;;;-0.70;99.90;;;;;;6246677;23;20434;-32
2024/01/17 02:46:52;;;;;;;9.70;5.43;;;-0.70;99.90;;;;;;6245153;23;20020;-33
2024/01/17 02:49:39;;;;;;;9.53;5.13;;;-0.70;99.90;;;;;;6219440;23;20051;-32
2024/01/17 02:52:05;;;;;;;10.27;5.13;;;-0.70;99.90;;;;;;6244865;23;20020;-32
2024/01/17 02:54:31;;;;;;;10.03;4.97;;;-0.70;99.90;;;;;;6245104;23;20012;-31
2024/01/17 02:56:57;;;;;;;17.42;6.38;;;-0.50;99.90;;;;;;6220346;23;20074;-32
2024/01/17 02:59:23;;;;;;;10.87;5.63;;;-0.80;99.90;;;;;;6247246;23;20015;-32
2024/01/17 03:01:48;;;;;;;12.48;6.03;;;-0.80;99.90;;;;;;6245168;23;20012;-31
2024/01/17 03:04:14;;;;;;;10.77;5.43;;;-0.80;99.90;;;;;;6246590;23;20008;-31
2024/01/17 03:06:45;;;;;;;17.70;5.60;;;-0.80;99.90;;;;;;6245078;23;20012;-32
2024/01/17 03:09:14;;;;;;;12.80;6.27;;;-0.80;99.90;;;;;;6220220;23;20035;-33
2024/01/17 03:11:43;;;;;;;11.97;5.70;;;-0.50;99.90;;;;;;6246615;22;20016;-31
2024/01/17 03:14:08;;;;;;;10.47;5.83;;;-0.80;99.90;;;;;;6245114;23;20019;-32
2024/01/17 03:16:36;;;;;;;8.93;5.47;;;-0.80;99.90;;;;;;6245027;23;20008;-31
2024/01/17 03:19:06;;;;;;;12.20;5.97;;;-0.80;99.90;;;;;;6245844;23;20012;-31
2024/01/17 03:21:32;;;;;;;10.17;5.57;;;-0.50;99.90;;;;;;6220985;23;20027;-32
2024/01/17 03:23:58;;;;;;;10.43;5.50;;;-0.80;99.90;;;;;;6245112;23;20009;-31
2024/01/17 03:26:24;;;;;;;11.30;6.68;;;-0.80;99.90;;;;;;6245016;23;20450;-30
2024/01/17 03:28:49;;;;;;;11.37;6.20;;;-0.80;99.90;;;;;;6246453;23;20090;-30
2024/01/17 03:31:15;;;;;;;12.87;6.43;;;-0.80;99.90;;;;;;6247171;23;20016;-30
2024/01/17 03:33:43;;;;;;;12.07;5.83;;;-0.80;99.90;;;;;;6244525;23;20458;-30
2024/01/17 03:36:09;;;;;;;11.70;7.23;;;-0.80;99.90;;;;;;6245852;23;20012;-29
2024/01/17 03:38:37;;;;;;;11.83;6.57;;;-0.80;99.90;;;;;;6247900;23;20404;-30
2024/01/17 03:41:05;;;;;;;12.50;6.67;;;-0.80;99.90;;;;;;6248425;23;20016;-30
2024/01/17 03:43:31;;;;;;;13.43;5.90;;;-0.80;99.90;;;;;;6248377;23;20016;-30
2024/01/17 03:45:57;;;;;;;12.47;7.43;;;-0.80;99.90;;;;;;6248373;22;20019;-30
2024/01/17 03:48:23;;;;;;;11.95;6.53;;;-0.80;99.90;;;;;;6246570;22;20012;-29
2024/01/17 03:50:52;;;;;;;10.57;6.20;;;-0.80;99.90;;;;;;6247222;23;20418;-29
2024/01/17 03:53:18;;;;;;;8.57;5.57;;;-0.80;99.90;;;;;;6248603;23;20012;-29
2024/01/17 03:55:43;;;;;;;12.23;6.97;;;-0.80;99.90;;;;;;6248890;23;20019;-30
2024/01/17 03:58:09;;;;;;;11.17;6.53;;;-0.80;99.90;;;;;;6246383;23;20012;-29
2024/01/17 04:00:38;;;;;;;13.70;6.57;;;-0.80;99.90;;;;;;6248191;23;20023;-29
2024/01/17 04:03:14;;;;;;;13.57;7.43;;;-0.90;99.90;;;;;;6247018;23;20081;-29
2024/01/17 04:05:43;;;;;;;14.77;6.63;;;-0.80;99.90;;;;;;6248195;23;20015;-29
2024/01/17 04:08:09;;;;;;;16.17;7.00;;;-0.80;99.90;;;;;;6246711;23;20012;-29
2024/01/17 04:10:37;;;;;;;15.63;6.57;;;-0.80;99.90;;;;;;6246571;23;20432;-29
2024/01/17 04:13:03;;;;;;;12.73;7.40;;;-0.80;99.90;;;;;;6246610;23;20016;-29
2024/01/17 04:15:29;;;;;;;11.13;6.90;;;-0.90;99.90;;;;;;6247993;22;20067;-28
2024/01/17 04:18:06;;;;;;;17.87;8.40;;;-0.90;99.90;;;;;;6247979;23;20012;-29
2024/01/17 04:20:32;;;;;;;10.97;5.60;;;-0.90;99.90;;;;;;6248055;23;20459;-28
2024/01/17 04:22:58;;;;;;;15.93;7.53;;;-0.90;99.90;;;;;;6248071;23;20012;-29
2024/01/17 04:25:24;;;;;;;12.40;6.70;;;-0.90;99.90;;;;;;6247978;23;20008;-30
2024/01/17 04:27:52;;;;;;;15.20;7.40;;;-0.90;99.90;;;;;;6196980;23;20269;-28
2024/01/17 04:30:18;;;;;;;15.27;7.32;;;-0.80;99.90;;;;;;6246423;23;20012;-28
2024/01/17 04:32:45;;;;;;;9.77;5.88;;;-0.80;99.90;;;;;;6248210;23;20069;-29
2024/01/17 04:35:11;;;;;;;12.90;8.30;;;-0.80;99.90;;;;;;6246345;23;20023;-28
2024/01/17 04:37:39;;;;;;;14.80;7.10;;;-0.80;99.90;;;;;;6247879;23;20016;-28
2024/01/17 04:40:08;;;;;;;14.53;7.37;;;-0.80;99.90;;;;;;6247925;23;20083;-28
2024/01/17 04:42:34;;;;;;;12.07;6.95;;;-0.80;99.90;;;;;;6246680;23;20012;-29
2024/01/17 04:44:59;;;;;;;10.70;5.53;;;-0.40;99.90;;;;;;6248166;22;20296;-28
2024/01/17 04:47:25;;;;;;;11.53;6.90;;;-0.80;99.90;;;;;;6246630;22;20493;-29
2024/01/17 04:49:51;;;;;;;12.03;6.50;;;-0.80;99.90;;;;;;6245885;22;20026;-28
2024/01/17 04:52:18;;;;;;;11.30;6.77;;;-0.80;99.90;;;;;;6247803;22;20091;-29
2024/01/17 04:54:44;;;;;;;11.77;6.07;;;-0.80;99.90;;;;;;6247596;23;20012;-28
2024/01/17 04:57:10;;;;;;;43.93;8.87;;;-0.40;99.90;;;;;;6247268;23;20432;-29
2024/01/17 04:59:39;;;;;;;13.10;5.00;;;-0.80;99.90;;;;;;6247292;23;20023;-27
2024/01/17 05:02:05;;;;;;;11.65;7.15;;;-0.80;99.90;;;;;;6221487;23;20016;-28
2024/01/17 05:04:33;;;;;;;13.82;7.05;;;-0.80;99.90;;;;;;6246015;23;20091;-27
2024/01/17 05:06:59;;;;;;;15.03;7.60;;;-0.90;99.90;;;;;;6247528;23;20051;-28
2024/01/17 05:09:28;;;;;;;11.53;6.53;;;-0.90;99.90;;;;;;6246018;23;20019;-27
2024/01/17 05:11:56;;;;;;;15.27;7.55;;;-1.00;99.90;;;;;;6246073;23;20047;-27
2024/01/17 05:14:22;;;;;;;17.47;7.40;;;-1.00;99.90;;;;;;6220076;23;20031;-28
2024/01/17 05:16:47;;;;;;;12.93;6.97;;;-1.00;99.90;;;;;;6248183;22;20019;-28
2024/01/17 05:19:17;;;;;;;12.77;7.70;;;-1.00;99.90;;;;;;6247527;22;20043;-27
2024/01/17 05:21:45;;;;;;;17.47;8.33;;;-1.00;99.90;;;;;;6247416;23;20019;-27
2024/01/17 05:24:10;;;;;;;19.95;8.93;;;-1.10;99.90;;;;;;6245869;23;20020;-27
2024/01/17 05:26:36;;;;;;;13.63;7.80;;;-1.10;99.90;;;;;;6246933;23;20074;-26
2024/01/17 05:29:06;;;;;;;12.77;6.23;;;-1.10;99.90;;;;;;6248036;23;20019;-27
2024/01/17 05:31:32;;;;;;;16.60;6.97;;;-1.00;99.90;;;;;;6247389;23;20096;-27
2024/01/17 05:33:58;;;;;;;11.63;6.90;;;-1.00;99.90;;;;;;6247963;22;20008;-27
2024/01/17 05:36:23;;;;;;;14.07;7.20;;;-1.00;99.90;;;;;;6247251;23;20051;-27
2024/01/17 05:38:51;;;;;;;14.37;7.80;;;-1.10;99.90;;;;;;6247241;23;20439;-26
2024/01/17 05:41:17;;;;;;;16.10;7.97;;;-1.10;99.90;;;;;;6248199;23;20107;-27
2024/01/17 05:43:43;;;;;;;17.10;8.13;;;-0.90;99.90;;;;;;6245277;23;20446;-26
2024/01/17 05:46:09;;;;;;;15.27;8.07;;;-1.30;99.90;;;;;;6248210;23;20106;-27
2024/01/17 05:48:34;;;;;;;14.93;7.97;;;-1.30;99.90;;;;;;6263562;22;20435;-26
2024/01/17 05:51:00;;;;;;;15.23;7.37;;;-1.30;99.90;;;;;;6308743;22;20015;-27
2024/01/17 05:53:28;;;;;;;18.70;7.90;;;-1.30;99.90;;;;;;6308693;22;20018;-26
2024/01/17 05:55:54;;;;;;;14.50;6.40;;;-1.30;99.90;;;;;;6255367;22;20016;-26
2024/01/17 05:58:19;;;;;;;15.60;8.20;;;-1.40;99.90;;;;;;6281345;22;20102;-26
2024/01/17 06:00:45;;;;;;;14.00;7.73;;;-1.40;99.90;;;;;;6309095;22;20045;-25
2024/01/17 06:03:11;;;;;;;15.17;7.33;;;-1.50;99.90;;;;;;6281541;22;20015;-25
2024/01/17 06:05:36;;;;;;;17.80;9.13;;;-1.50;99.90;;;;;;6308607;22;20014;-25
2024/01/17 06:08:02;;;;;;;19.83;7.30;;;-1.60;99.90;;;;;;6281910;22;20015;-25
2024/01/17 06:10:31;;;;;;;17.53;7.60;;;-1.60;99.90;;;;;;6281611;22;20377;-25
2024/01/17 06:12:59;;;;;;;17.00;8.40;;;-1.70;99.90;;;;;;6281883;22;20015;-25
2024/01/17 06:15:30;;;;;;;18.07;8.53;;;-1.70;99.90;;;;;;6255628;22;20011;-24
2024/01/17 06:17:55;;;;;;;18.30;8.60;;;-1.70;99.90;;;;;;6309199;22;20007;-25
2024/01/17 06:20:21;;;;;;;16.13;8.20;;;-1.60;99.90;;;;;;6281220;22;20076;-25
2024/01/17 06:22:47;;;;;;;16.70;8.00;;;-1.50;99.90;;;;;;6308818;22;20015;-24
2024/01/17 06:25:12;;;;;;;10.07;7.30;;;-1.80;99.90;;;;;;6308474;22;20007;-24
2024/01/17 06:27:41;;;;;;;13.27;8.23;;;-1.70;99.90;;;;;;6308451;22;20482;-24
2024/01/17 06:30:08;;;;;;;14.37;7.83;;;-1.90;99.90;;;;;;6308417;22;20015;-24
2024/01/17 06:32:33;;;;;;;13.37;7.43;;;-1.90;99.90;;;;;;6308724;22;20064;-24
2024/01/17 06:35:02;;;;;;;13.67;8.00;;;-2.00;99.90;;;;;;6281009;22;20015;-24
2024/01/17 06:37:31;;;;;;;9.60;6.30;;;-2.00;99.90;;;;;;6308348;22;20011;-24
2024/01/17 06:39:56;;;;;;;17.97;8.23;;;-2.00;99.90;;;;;;6281120;22;20016;-23
2024/01/17 06:42:22;;;;;;;13.57;6.87;;;-2.00;99.90;;;;;;6308309;22;20323;-23
2024/01/17 06:44:48;;;;;;;13.00;8.07;;;-2.00;99.90;;;;;;6282157;22;20042;-23
2024/01/17 06:47:16;;;;;;;15.47;7.43;;;-2.00;99.90;;;;;;6308094;22;20015;-23
2024/01/17 06:49:42;;;;;;;13.33;8.10;;;-2.00;99.90;;;;;;6308787;22;20018;-23
2024/01/17 06:52:08;;;;;;;17.50;7.73;;;-2.00;99.90;;;;;;6280812;22;20007;-24
2024/01/17 06:54:34;;;;;;;15.33;8.13;;;-1.70;99.90;;;;;;6281803;22;20011;-23
2024/01/17 06:57:02;;;;;;;15.53;8.03;;;-2.00;99.90;;;;;;6308857;22;20360;-23
2024/01/17 06:59:31;;;;;;;13.20;7.70;;;-2.00;99.90;;;;;;6308141;22;20015;-23
2024/01/17 07:01:56;;;;;;;9.47;6.70;;;-2.00;99.90;;;;;;6308166;22;20011;-23
2024/01/17 07:04:22;;;;;;;17.60;7.47;;;-2.00;99.90;;;;;;6308870;22;20094;-23
2024/01/17 07:06:48;;;;;;;12.90;6.77;;;-2.00;99.90;;;;;;6308519;22;20337;-23
2024/01/17 07:09:17;;;;;;;11.57;7.73;;;-2.00;99.90;;;;;;6255664;22;20016;-23
2024/01/17 07:11:46;;;;;;;16.93;9.37;;;-2.00;99.90;;;;;;6310442;22;20152;-23
2024/01/17 07:14:12;;;;;;;16.57;7.37;;;-2.00;99.90;;;;;;6310114;22;20014;-23
2024/01/17 07:16:40;;;;;;;17.30;8.67;;;-1.80;99.90;;;;;;6310199;22;20011;-23
2024/01/17 07:19:05;;;;;;;16.83;7.83;;;-2.00;99.90;;;;;;6282929;22;20011;-23
2024/01/17 07:21:40;;;;;;;16.77;8.60;;;-2.00;99.90;;;;;;6311210;22;20011;-23
2024/01/17 07:24:06;;;;;;;14.87;7.80;;;-2.00;99.90;;;;;;6257258;22;20015;-23
2024/01/17 07:26:31;;;;;;;12.67;7.83;;;-2.00;99.90;;;;;;6282410;22;20022;-23
2024/01/17 07:28:57;;;;;;;13.17;8.07;;;-2.00;99.90;;;;;;6310065;22;20090;-23
2024/01/17 07:31:23;;;;;;;19.60;8.27;;;-2.10;99.90;;;;;;6257210;22;20050;-23
2024/01/17 07:33:49;;;;;;;13.27;7.90;;;-2.00;99.90;;;;;;6309972;22;20022;-23
2024/01/17 07:36:14;;;;;;;20.17;8.23;;;-2.10;99.90;;;;;;6257245;22;20089;-24
2024/01/17 07:38:42;;;;;;;17.23;7.67;;;-2.10;99.90;;;;;;6311044;22;20015;-23
2024/01/17 07:41:08;;;;;;;14.97;9.13;;;-2.10;99.90;;;;;;6282540;22;20011;-24
2024/01/17 07:43:34;;;;;;;13.77;7.57;;;-2.10;99.90;;;;;;6283538;22;20411;-23
2024/01/17 07:46:02;;;;;;;12.03;7.63;;;-2.10;99.90;;;;;;6282713;22;20007;-23
2024/01/17 07:48:28;;;;;;;15.10;7.73;;;-2.10;99.90;;;;;;6257693;22;20011;-23
2024/01/17 07:50:55;;;;;;;15.80;8.03;;;-2.10;99.90;;;;;;6282501;22;20026;-23
2024/01/17 07:53:20;;;;;;;14.43;6.93;;;-2.10;99.90;;;;;;6310917;22;20011;-24
2024/01/17 07:55:46;;;;;;;12.53;6.83;;;-2.10;99.90;;;;;;6309875;22;20073;-24
2024/01/17 07:58:12;;;;;;;14.83;7.93;;;-2.10;99.90;;;;;;6309796;22;20015;-24
2024/01/17 08:00:37;;;;;;;13.30;6.90;;;-2.10;99.90;;;;;;6282539;22;20011;-24
2024/01/17 08:03:04;;;;;;;11.70;6.67;;;-2.10;99.90;;;;;;6309808;22;20042;-24
2024/01/17 08:05:33;;;;;;;14.03;7.00;;;-2.10;99.90;;;;;;6282471;22;20019;-24
2024/01/17 08:07:59;;;;;;;15.17;8.47;;;-2.10;99.90;;;;;;6310441;22;20011;-24
2024/01/17 08:10:25;;;;;;;12.50;6.80;;;-2.10;99.90;;;;;;6256790;22;20438;-24
2024/01/17 08:12:51;;;;;;;16.97;8.00;;;-2.10;99.90;;;;;;6256453;22;20015;-24
2024/01/17 08:15:17;;;;;;;18.10;8.27;;;-2.20;99.90;;;;;;6309579;22;20018;-24
2024/01/17 08:17:45;;;;;;;15.67;7.70;;;-2.20;99.90;;;;;;6282803;22;20018;-24
2024/01/17 08:20:12;;;;;;;16.17;7.77;;;-2.20;99.90;;;;;;6309699;22;20015;-24
2024/01/17 08:22:40;;;;;;;13.37;7.70;;;-2.10;99.90;;;;;;6309922;22;20011;-24
2024/01/17 08:25:07;;;;;;;14.37;7.63;;;-2.30;99.90;;;;;;6282219;22;20015;-24
2024/01/17 08:27:33;;;;;;;13.90;8.23;;;-2.30;99.90;;;;;;6282179;22;20011;-25
2024/01/17 08:30:01;;;;;;;13.67;8.13;;;-2.30;99.90;;;;;;6310583;22;20015;-24
2024/01/17 08:32:27;;;;;;;15.00;7.83;;;-2.30;99.90;;;;;;6282235;22;20086;-24
2024/01/17 08:34:52;;;;;;;13.23;7.10;;;-2.30;99.90;;;;;;6309377;22;20080;-24
2024/01/17 08:37:18;;;;;;;22.30;7.53;;;-2.30;99.90;;;;;;6309462;22;20014;-25
2024/01/17 08:39:44;;;;;;;16.27;7.83;;;-2.30;99.90;;;;;;6282139;22;20015;-24
2024/01/17 08:42:11;;;;;;;14.93;8.03;;;-2.20;99.90;;;;;;6282163;22;20018;-24
2024/01/17 08:44:42;;;;;;;14.50;8.13;;;-2.10;99.90;;;;;;6309411;22;20061;-24
2024/01/17 08:47:08;;;;;;;14.73;7.60;;;-2.10;99.90;;;;;;6310469;22;20335;-24
2024/01/17 08:49:40;;;;;;;14.93;8.37;;;-2.10;99.90;;;;;;6281528;22;20081;-24
2024/01/17 08:52:09;;;;;;;12.77;7.87;;;-2.10;99.90;;;;;;6282972;22;20019;-25
2024/01/17 08:54:35;;;;;;;18.87;8.63;;;-2.10;99.90;;;;;;6281808;22;20069;-25
2024/01/17 08:57:01;;;;;;;15.90;8.00;;;-2.10;99.90;;;;;;6309203;22;20050;-25
2024/01/17 08:59:28;;;;;;;14.87;7.90;;;-2.00;99.90;;;;;;6281641;22;20516;-25
2024/01/17 09:01:56;;;;;;;19.20;7.97;;;-1.90;99.90;;;;;;6282940;22;20311;-25
2024/01/17 09:04:23;;;;;;;13.27;7.40;;;-1.90;99.90;;;;;;6281924;22;20022;-25
2024/01/17 09:06:49;;;;;;;13.73;7.57;;;-1.80;99.90;;;;;;6256320;22;20015;-25
2024/01/17 09:09:15;;;;;;;15.30;7.40;;;-1.80;99.90;;;;;;6309240;22;20011;-25
2024/01/17 09:11:41;;;;;;;14.27;7.23;;;-1.80;99.90;;;;;;6282745;22;20018;-25
2024/01/17 09:14:07;;;;;;;13.47;7.40;;;-1.70;99.90;;;;;;6281834;22;20008;-25
2024/01/17 09:16:33;;;;;;;11.70;7.30;;;-1.70;99.90;;;;;;6310124;22;20021;-25
2024/01/17 09:19:02;;;;;;;20.07;8.27;;;-1.70;99.90;;;;;;6309020;22;20431;-25
2024/01/17 09:21:29;;;;;;;11.47;6.70;;;-1.70;99.90;;;;;;6282554;22;20015;-25
2024/01/17 09:23:55;;;;;;;14.13;6.77;;;-1.60;99.90;;;;;;6256806;22;20014;-25
2024/01/17 09:26:21;;;;;;;12.07;6.70;;;-1.60;99.90;;;;;;6309044;22;20081;-25
2024/01/17 09:28:49;;;;;;;11.27;7.03;;;-1.60;99.90;;;;;;6257025;22;20049;-25
2024/01/17 09:31:14;;;;;;;12.10;7.07;;;-1.60;99.90;;;;;;6281620;22;20018;-25
2024/01/17 09:33:40;;;;;;;10.77;6.77;;;-1.60;99.90;;;;;;6281244;22;20012;-25
2024/01/17 09:36:06;;;;;;;12.43;6.87;;;-1.60;99.90;;;;;;6308646;22;20015;-25
2024/01/17 09:38:32;;;;;;;12.47;7.00;;;-1.50;99.90;;;;;;6282442;22;20015;-25
2024/01/17 09:40:58;;;;;;;13.57;7.28;;;-1.50;99.90;;;;;;6308800;22;20033;-25
2024/01/17 09:43:24;;;;;;;21.33;8.30;;;-1.50;99.90;;;;;;6281442;22;20022;-26
2024/01/17 09:45:50;;;;;;;11.70;7.17;;;-1.50;99.90;;;;;;6308737;22;20065;-25
2024/01/17 09:48:18;;;;;;;11.77;6.17;;;-1.50;99.90;;;;;;6308371;22;20438;-24
2024/01/17 09:50:46;;;;;;;13.27;6.80;;;-1.50;99.90;;;;;;6282548;22;20023;-25
2024/01/17 09:53:16;;;;;;;19.67;9.10;;;-1.10;99.90;;;;;;6308714;22;20018;-25
2024/01/17 09:55:44;;;;;;;13.80;6.47;;;-1.40;99.90;;;;;;6309380;22;20007;-25
2024/01/17 09:58:12;;;;;;;11.97;8.00;;;-1.40;99.90;;;;;;6308710;22;20434;-25
2024/01/17 10:00:41;;;;;;;13.13;7.90;;;-1.40;99.90;;;;;;6308671;22;20064;-26
2024/01/17 10:03:10;;;;;;;12.50;6.93;;;-1.40;99.90;;;;;;6281264;22;20015;-25
2024/01/17 10:05:36;;;;;;;10.83;6.17;;;-1.40;99.90;;;;;;6256077;22;20022;-25
2024/01/17 10:08:02;;;;;;;9.83;6.13;;;-1.10;99.90;;;;;;6309236;22;20068;-25
2024/01/17 10:10:28;;;;;;;14.47;6.77;;;-1.40;99.90;;;;;;6308632;22;20046;-25
2024/01/17 10:12:57;;;;;;;17.03;6.40;;;-1.40;99.90;;;;;;6308511;22;20438;-25
2024/01/17 10:15:24;;;;;;;13.60;6.20;;;-1.40;99.90;;;;;;6255535;22;20410;-25
2024/01/17 10:17:50;;;;;;;16.77;7.17;;;-1.40;99.90;;;;;;6308812;22;20022;-25
2024/01/17 10:20:16;;;;;;;13.90;6.23;;;-1.40;99.90;;;;;;6308501;22;20011;-25
2024/01/17 10:22:45;;;;;;;11.67;5.83;;;-1.40;99.90;;;;;;6308471;22;20011;-25
2024/01/17 10:25:12;;;;;;;15.60;6.90;;;-1.40;99.90;;;;;;6309104;22;20022;-26
2024/01/17 10:27:37;;;;;;;11.33;6.37;;;-1.40;99.90;;;;;;6308358;22;20472;-25
2024/01/17 10:30:04;;;;;;;11.60;6.43;;;-1.40;99.90;;;;;;6309036;22;20015;-25
2024/01/17 10:32:31;;;;;;;11.10;6.47;;;-1.40;99.90;;;;;;6280781;22;20011;-25
2024/01/17 10:34:58;;;;;;;10.20;5.90;;;-1.40;99.90;;;;;;6308245;22;20015;-25
2024/01/17 10:37:25;;;;;;;14.30;6.90;;;-1.30;99.90;;;;;;6308401;22;20426;-25
2024/01/17 10:40:10;;;;;;;14.50;6.77;;;-1.30;99.90;;;;;;6307935;22;20015;-26
2024/01/17 10:42:36;;;;;;;10.80;6.50;;;-1.30;99.90;;;;;;6281047;22;20423;-26
2024/01/17 10:45:03;;;;;;;12.27;5.83;;;-1.30;99.90;;;;;;6281014;22;20181;-25
2024/01/17 10:47:29;;;;;;;13.35;5.72;;;-1.20;99.90;;;;;;6280474;22;20015;-26
2024/01/17 10:49:55;;;;;;;14.60;6.83;;;-1.20;99.90;;;;;;6280790;22;20015;-25
2024/01/17 10:52:25;;;;;;;12.40;6.23;;;-1.10;99.90;;;;;;6281033;22;20011;-26
2024/01/17 10:54:57;;;;;;;13.93;6.53;;;-1.00;99.90;;;;;;6255658;22;20113;-26
2024/01/17 10:57:25;;;;;;;13.40;5.90;;;-1.00;99.90;;;;;;6308224;22;20055;-25
2024/01/17 10:59:51;;;;;;;12.17;5.80;;;-1.00;99.90;;;;;;6280933;22;20018;-26
2024/01/17 11:02:21;;;;;;;11.90;6.40;;;-0.90;99.90;;;;;;6308204;22;20011;-26
2024/01/17 11:04:55;;;;;;;12.83;6.60;;;-0.90;99.90;;;;;;6308113;22;20011;-26
2024/01/17 11:07:23;;;;;;;16.03;6.77;;;-0.90;99.90;;;;;;6280297;22;20041;-26
2024/01/17 11:09:51;;;;;;;14.50;6.83;;;-0.90;99.90;;;;;;6280205;22;20020;-26
2024/01/17 11:12:21;;;;;;;12.82;6.65;;;-0.90;99.90;;;;;;6307502;22;20043;-26
2024/01/17 11:14:49;;;;;;;9.67;5.57;;;-0.90;99.90;;;;;;6255206;22;20012;-26
2024/01/17 11:17:16;;;;;;;10.20;5.30;;;-0.90;99.90;;;;;;6307741;22;20120;-26
2024/01/17 11:19:44;;;;;;;10.18;5.72;;;-0.90;99.90;;;;;;6307653;22;20068;-26
2024/01/17 11:22:16;;;;;;;11.20;5.93;;;-1.00;99.90;;;;;;6279980;22;20050;-26
2024/01/17 11:25:13;;;;;;;12.50;6.97;;;-1.00;99.90;;;;;;6307429;22;20015;-26
2024/01/17 11:27:47;;;;;;;11.57;6.30;;;-1.00;99.90;;;;;;6307543;22;20021;-26
2024/01/17 11:30:53;;;;;;;11.33;5.87;;;-1.00;99.90;;;;;;6280225;22;20094;-26
2024/01/17 11:33:19;;;;;;;11.20;6.33;;;-1.10;99.90;;;;;;6307344;22;20020;-26
2024/01/17 11:35:50;;;;;;;12.97;6.23;;;-1.10;99.90;;;;;;6280289;22;20087;-26
2024/01/17 11:38:29;;;;;;;15.10;6.83;;;-1.30;99.90;;;;;;6307080;22;20019;-26
2024/01/17 11:40:57;;;;;;;10.20;6.13;;;-1.30;99.90;;;;;;6280028;22;20454;-26
2024/01/17 11:43:28;;;;;;;13.77;6.10;;;-1.30;99.90;;;;;;6280080;22;20382;-26
2024/01/17 11:45:54;;;;;;;12.43;6.50;;;-1.30;99.90;;;;;;6279189;22;20342;-26
2024/01/17 11:48:28;;;;;;;16.90;6.80;;;-1.30;99.90;;;;;;6306314;22;20026;-26
2024/01/17 11:51:02;;;;;;;15.77;6.63;;;-1.20;99.90;;;;;;6306553;22;20023;-27
2024/01/17 11:53:28;;;;;;;12.30;6.33;;;-1.30;99.90;;;;;;6306522;22;20057;-26
2024/01/17 11:56:02;;;;;;;13.07;7.27;;;-1.30;99.90;;;;;;6306376;22;20089;-26
2024/01/17 11:58:42;;;;;;;12.57;7.53;;;-1.30;99.90;;;;;;6280690;22;20015;-27
2024/01/17 12:01:12;;;;;;;13.67;8.03;;;-1.40;99.90;;;;;;6282204;22;20483;-26
2024/01/17 12:03:43;;;;;;;12.47;7.30;;;-1.40;99.90;;;;;;6309762;22;20018;-26
2024/01/17 12:06:12;;;;;;;14.97;8.57;;;-1.40;99.90;;;;;;6310095;22;20015;-27
2024/01/17 12:08:38;;;;;;;12.63;8.33;;;-1.30;99.90;;;;;;6309278;22;20354;-27
2024/01/17 12:11:05;;;;;;;16.37;9.13;;;-1.20;99.90;;;;;;6282306;22;20029;-26
2024/01/17 12:13:30;;;;;;;12.57;7.67;;;-1.10;99.90;;;;;;6309650;22;20026;-27
2024/01/17 12:15:57;;;;;;;14.40;8.13;;;-1.10;99.90;;;;;;6282348;22;20007;-27
2024/01/17 12:18:24;;;;;;;14.03;8.80;;;-1.00;99.90;;;;;;6283020;22;20066;-27
2024/01/17 12:20:51;;;;;;;17.97;9.43;;;-1.00;99.90;;;;;;6282341;22;20031;-26
2024/01/17 12:23:22;;;;;;;16.77;8.27;;;-1.00;99.90;;;;;;6282553;22;20051;-26
2024/01/17 12:25:49;;;;;;;21.23;8.70;;;-1.00;99.90;;;;;;6309575;22;20094;-26
2024/01/17 12:28:22;;;;;;;16.80;7.67;;;-1.10;99.90;;;;;;6282235;22;20015;-27
2024/01/17 12:31:06;;;;;;;16.53;7.67;;;-1.10;99.90;;;;;;6282415;22;20011;-27
2024/01/17 12:33:33;;;;;;;17.48;8.63;;;-1.10;99.90;;;;;;6309424;22;20440;-27
2024/01/17 12:36:02;;;;;;;18.70;8.93;;;-1.10;99.90;;;;;;6309936;22;20012;-27
2024/01/17 12:38:32;;;;;;;17.77;8.70;;;-1.00;99.90;;;;;;6282037;22;20025;-26
2024/01/17 12:40:59;;;;;;;15.27;8.13;;;-0.90;99.90;;;;;;6309288;22;20019;-27